createdAt,value
2023-03-03T00:01:07.227Z,4.80
2023-03-03T00:03:34.489Z,5.10
2023-03-03T00:06:04.726Z,4.90
2023-03-03T00:08:32.578Z,4.80
2023-03-03T00:11:00.852Z,4.90
2023-03-03T00:13:28.879Z,4.90
2023-03-03T00:16:28.657Z,4.80
2023-03-03T00:18:56.016Z,4.80
2023-03-03T00:21:42.975Z,4.80
2023-03-03T00:24:27.673Z,4.70
2023-03-03T00:26:57.146Z,4.80
2023-03-03T00:29:39.155Z,4.70
2023-03-03T00:32:15.305Z,4.70
2023-03-03T00:37:27.645Z,4.70
2023-03-03T00:40:25.883Z,4.60
2023-03-03T00:42:58.807Z,4.50
2023-03-03T00:45:39.181Z,4.60
2023-03-03T00:48:28.651Z,3.00
2023-03-03T00:51:01.261Z,4.60
2023-03-03T00:53:31.507Z,4.50
2023-03-03T00:55:58.870Z,4.40
2023-03-03T01:00:56.641Z,4.40
2023-03-03T01:03:29.082Z,4.40
2023-03-03T01:05:56.016Z,4.50
2023-03-03T01:10:53.979Z,4.40
2023-03-03T01:13:28.957Z,4.40
2023-03-03T01:28:13.820Z,4.40
2023-03-03T01:33:08.070Z,4.30
2023-03-03T01:43:02.424Z,4.10
2023-03-03T01:45:32.609Z,4.30
2023-03-03T01:48:05.272Z,4.10
2023-03-03T01:50:56.875Z,4.00
2023-03-03T01:53:39.967Z,4.10
2023-03-03T01:56:09.086Z,4.10
2023-03-03T01:58:44.617Z,4.10
2023-03-03T02:01:20.579Z,4.10
2023-03-03T02:06:20.565Z,4.00
2023-03-03T02:08:56.505Z,4.00
2023-03-03T02:13:50.959Z,4.30
2023-03-03T02:18:45.494Z,4.00
2023-03-03T02:21:23.104Z,3.70
2023-03-03T02:24:10.680Z,3.90
2023-03-03T02:26:41.702Z,4.00
2023-03-03T02:29:10.833Z,3.80
2023-03-03T02:36:38.072Z,3.90
2023-03-03T02:42:18.514Z,3.90
2023-03-03T02:44:50.359Z,3.80
2023-03-03T02:47:17.531Z,4.00
2023-03-03T02:52:14.698Z,3.60
2023-03-03T02:59:39.868Z,3.80
2023-03-03T03:09:43.413Z,3.80
2023-03-03T03:36:56.345Z,3.40
2023-03-03T03:49:16.248Z,3.50
2023-03-03T03:51:43.207Z,3.50
2023-03-03T03:56:42.284Z,3.50
2023-03-03T04:01:38.475Z,4.20
2023-03-03T04:04:05.793Z,3.60
2023-03-03T04:06:33.005Z,3.50
2023-03-03T04:11:30.144Z,3.50
2023-03-03T04:18:52.740Z,3.40
2023-03-03T04:26:17.366Z,3.40
2023-03-03T04:31:12.749Z,3.50
2023-03-03T04:36:08.511Z,3.50
2023-03-03T04:43:34.728Z,3.40
2023-03-03T04:58:21.513Z,3.30
2023-03-03T05:00:55.481Z,3.30
2023-03-03T05:10:45.171Z,3.50
2023-03-03T05:15:43.261Z,3.30
2023-03-03T05:20:41.996Z,3.30
2023-03-03T05:23:08.913Z,3.30
2023-03-03T05:37:54.942Z,3.30
2023-03-03T05:40:25.941Z,3.30
2023-03-03T05:42:53.665Z,3.20
2023-03-03T05:45:21.886Z,5.10
2023-03-03T05:55:11.620Z,3.30
2023-03-03T06:00:08.361Z,3.20
2023-03-03T06:07:36.879Z,3.10
2023-03-03T06:10:05.048Z,3.00
2023-03-03T06:22:23.674Z,3.20
2023-03-03T06:39:36.559Z,3.00
2023-03-03T06:51:53.211Z,3.00
2023-03-03T06:54:30.700Z,3.00
2023-03-03T06:57:01.440Z,2.90
2023-03-03T07:01:56.786Z,2.90
2023-03-03T07:04:33.920Z,2.90
2023-03-03T07:07:21.575Z,3.00
2023-03-03T07:09:55.442Z,3.10
2023-03-03T07:12:30.897Z,3.10
2023-03-03T07:15:20.498Z,3.20
2023-03-03T07:17:51.296Z,3.20
2023-03-03T07:23:44.930Z,3.20
2023-03-03T07:26:23.093Z,3.10
2023-03-03T07:28:58.578Z,3.00
2023-03-03T07:31:36.644Z,3.20
2023-03-03T07:34:21.626Z,3.30
2023-03-03T07:37:04.638Z,3.20
2023-03-03T07:39:39.048Z,3.10
2023-03-03T07:42:28.370Z,3.20
2023-03-03T07:45:30.682Z,3.20
2023-03-03T07:48:22.496Z,3.20
2023-03-03T07:50:49.932Z,3.20
2023-03-03T07:53:36.371Z,3.20
2023-03-03T07:56:16.480Z,3.30
2023-03-03T08:01:40.930Z,3.30
2023-03-03T08:04:36.683Z,3.30
2023-03-03T08:07:16.974Z,3.30
2023-03-03T08:10:00.614Z,3.20
2023-03-03T08:12:42.125Z,3.20
2023-03-03T08:15:24.605Z,4.90
2023-03-03T08:17:56.024Z,3.50
2023-03-03T08:20:34.725Z,2.90
2023-03-03T08:25:29.340Z,3.30
2023-03-03T08:42:40.079Z,3.30
2023-03-03T08:45:07.461Z,3.20
2023-03-03T08:57:23.832Z,3.60
2023-03-03T09:02:18.074Z,3.30
2023-03-03T09:12:18.289Z,3.30
2023-03-03T09:17:39.055Z,3.40
2023-03-03T09:20:39.989Z,3.50
2023-03-03T09:23:36.283Z,3.70
2023-03-03T09:26:47.737Z,3.50
2023-03-03T09:29:14.458Z,3.60
2023-03-03T09:31:57.400Z,3.70
2023-03-03T09:34:29.365Z,3.70
2023-03-03T09:36:56.496Z,3.60
2023-03-03T09:39:26.782Z,3.70
2023-03-03T09:42:30.120Z,3.70
2023-03-03T09:45:24.537Z,3.90
2023-03-03T09:48:13.722Z,3.90
2023-03-03T09:50:46.799Z,3.90
2023-03-03T09:53:46.206Z,3.90
2023-03-03T09:56:24.500Z,4.00
2023-03-03T10:01:45.398Z,4.00
2023-03-03T10:04:49.066Z,4.00
2023-03-03T10:07:32.439Z,4.00
2023-03-03T10:10:08.080Z,4.10
2023-03-03T10:13:05.427Z,4.40
2023-03-03T10:18:33.432Z,4.50
2023-03-03T10:21:37.338Z,4.40
2023-03-03T10:24:41.636Z,4.40
2023-03-03T10:27:42.123Z,4.40
2023-03-03T10:33:33.364Z,4.20
2023-03-03T10:36:18.279Z,4.20
2023-03-03T10:39:23.385Z,4.10
2023-03-03T10:42:30.092Z,4.40
2023-03-03T10:45:30.024Z,4.40
2023-03-03T10:48:48.079Z,4.40
2023-03-03T10:51:43.250Z,4.60
2023-03-03T10:54:47.911Z,5.00
2023-03-03T10:58:14.669Z,4.90
2023-03-03T11:03:56.224Z,4.60
2023-03-03T11:06:40.575Z,4.50
2023-03-03T11:09:32.603Z,4.80
2023-03-03T11:12:07.009Z,4.70
2023-03-03T11:14:56.152Z,4.40
2023-03-03T11:17:54.927Z,4.80
2023-03-03T11:20:52.673Z,4.60
2023-03-03T11:23:53.605Z,4.50
2023-03-03T11:26:45.855Z,4.60
2023-03-03T11:29:52.820Z,4.70
2023-03-03T11:32:48.946Z,4.90
2023-03-03T11:35:51.687Z,4.80
2023-03-03T11:38:39.496Z,4.90
2023-03-03T11:41:46.964Z,5.00
2023-03-03T11:44:27.577Z,5.10
2023-03-03T11:47:22.045Z,5.20
2023-03-03T11:50:26.439Z,3.60
2023-03-03T11:53:27.133Z,5.70
2023-03-03T11:56:18.036Z,5.50
2023-03-03T11:59:34.978Z,5.60
2023-03-03T12:03:01.614Z,5.20
2023-03-03T12:05:56.192Z,5.00
2023-03-03T12:08:44.761Z,5.80
2023-03-03T12:11:36.639Z,5.80
2023-03-03T12:14:35.521Z,6.00
2023-03-03T12:17:49.467Z,6.40
2023-03-03T12:20:44.941Z,6.40
2023-03-03T12:24:04.962Z,6.90
2023-03-03T12:27:12.780Z,7.40
2023-03-03T12:30:18.424Z,7.70
2023-03-03T12:33:15.053Z,8.90
2023-03-03T12:36:14.373Z,9.20
2023-03-03T12:39:00.489Z,9.80
2023-03-03T12:42:05.349Z,10.30
2023-03-03T12:45:04.910Z,10.50
2023-03-03T12:48:10.173Z,11.00
2023-03-03T12:51:18.600Z,10.10
2023-03-03T12:56:46.269Z,10.90
2023-03-03T12:59:28.438Z,10.50
2023-03-03T13:02:25.667Z,10.50
2023-03-03T13:05:14.750Z,9.80
2023-03-03T13:07:51.489Z,9.30
2023-03-03T13:10:58.544Z,9.90
2023-03-03T13:13:43.726Z,9.90
2023-03-03T13:16:26.442Z,9.80
2023-03-03T13:19:18.053Z,11.40
2023-03-03T13:22:15.162Z,11.70
2023-03-03T13:25:04.253Z,13.10
2023-03-03T13:27:40.908Z,13.20
2023-03-03T13:30:16.929Z,12.10
2023-03-03T13:33:17.596Z,12.00
2023-03-03T13:35:56.982Z,11.50
2023-03-03T13:38:42.903Z,11.20
2023-03-03T13:41:44.598Z,11.50
2023-03-03T13:44:35.498Z,11.60
2023-03-03T13:47:27.883Z,11.30
2023-03-03T13:50:16.189Z,11.10
2023-03-03T13:56:04.134Z,11.80
2023-03-03T14:02:21.017Z,12.80
2023-03-03T14:05:12.643Z,12.90
2023-03-03T14:07:54.770Z,12.60
2023-03-03T14:10:30.492Z,13.50
2023-03-03T14:13:26.800Z,12.70
2023-03-03T14:16:08.801Z,12.70
2023-03-03T14:18:39.560Z,12.30
2023-03-03T14:24:13.958Z,12.40
2023-03-03T14:26:56.964Z,12.50
2023-03-03T14:29:26.996Z,12.30
2023-03-03T14:32:44.409Z,11.70
2023-03-03T14:37:50.588Z,11.80
2023-03-03T14:40:22.958Z,11.70
2023-03-03T14:42:52.859Z,11.50
2023-03-03T14:45:36.212Z,10.90
2023-03-03T14:48:13.634Z,10.90
2023-03-03T14:55:50.582Z,10.50
2023-03-03T14:58:40.372Z,10.80
2023-03-03T15:01:23.751Z,10.60
2023-03-03T15:04:00.156Z,10.90
2023-03-03T15:06:44.730Z,11.10
2023-03-03T15:09:43.279Z,10.70
2023-03-03T15:12:48.044Z,10.90
2023-03-03T15:17:51.024Z,10.50
2023-03-03T15:20:42.843Z,10.50
2023-03-03T15:23:51.600Z,10.80
2023-03-03T15:26:44.087Z,11.10
2023-03-03T15:31:57.416Z,10.70
2023-03-03T15:38:00.010Z,10.60
2023-03-03T15:40:29.422Z,10.80
2023-03-03T15:43:19.678Z,10.70
2023-03-03T15:46:06.925Z,10.80
2023-03-03T15:54:25.677Z,7.80
2023-03-03T15:57:57.287Z,10.60
2023-03-03T16:01:11.027Z,10.40
2023-03-03T16:03:56.101Z,10.40
2023-03-03T16:07:05.823Z,10.30
2023-03-03T16:12:44.401Z,9.90
2023-03-03T16:15:46.308Z,9.90
2023-03-03T16:18:44.249Z,9.80
2023-03-03T16:21:54.264Z,9.80
2023-03-03T16:25:01.604Z,9.70
2023-03-03T16:27:44.081Z,9.90
2023-03-03T16:31:04.772Z,10.00
2023-03-03T16:33:48.596Z,9.90
2023-03-03T16:36:18.482Z,9.80
2023-03-03T16:39:20.974Z,9.90
2023-03-03T16:44:54.348Z,9.80
2023-03-03T16:47:37.161Z,9.40
2023-03-03T16:50:26.286Z,9.10
2023-03-03T16:53:39.427Z,9.30
2023-03-03T16:56:32.225Z,9.10
2023-03-03T16:59:45.509Z,8.10
2023-03-03T17:02:56.625Z,9.10
2023-03-03T17:05:35.496Z,8.90
2023-03-03T17:08:50.459Z,8.80
2023-03-03T17:11:39.936Z,8.00
2023-03-03T17:14:38.497Z,7.80
2023-03-03T17:17:52.665Z,8.10
2023-03-03T17:20:31.028Z,7.00
2023-03-03T17:23:19.662Z,8.40
2023-03-03T17:29:33.913Z,8.50
2023-03-03T17:32:05.132Z,8.40
2023-03-03T17:35:02.880Z,8.40
2023-03-03T17:38:14.154Z,8.30
2023-03-03T17:40:53.287Z,8.30
2023-03-03T17:43:31.825Z,8.30
2023-03-03T17:46:03.259Z,8.20
2023-03-03T17:49:02.710Z,7.60
2023-03-03T17:52:09.651Z,8.00
2023-03-03T17:54:44.333Z,7.70
2023-03-03T17:57:57.939Z,7.60
2023-03-03T18:00:52.686Z,7.80
2023-03-03T18:03:43.589Z,7.80
2023-03-03T18:07:12.257Z,7.80
2023-03-03T18:10:20.704Z,7.70
2023-03-03T18:13:14.249Z,7.70
2023-03-03T18:16:38.519Z,7.70
2023-03-03T18:19:50.698Z,7.60
2023-03-03T18:22:33.168Z,7.70
2023-03-03T18:25:40.387Z,7.60
2023-03-03T18:28:07.144Z,7.60
2023-03-03T18:31:04.652Z,7.60
2023-03-03T18:34:20.307Z,7.40
2023-03-03T18:39:50.866Z,7.30
2023-03-03T18:47:58.872Z,7.30
2023-03-03T18:50:34.932Z,7.20
2023-03-03T18:53:10.932Z,7.30
2023-03-03T18:55:46.146Z,7.20
2023-03-03T18:58:15.969Z,7.30
2023-03-03T19:00:49.950Z,7.20
2023-03-03T19:03:34.223Z,7.10
2023-03-03T19:06:02.967Z,7.00
2023-03-03T19:08:53.832Z,7.00
2023-03-03T19:11:49.321Z,7.00
2023-03-03T19:14:34.522Z,7.00
2023-03-03T19:17:22.195Z,7.00
2023-03-03T19:20:12.813Z,7.00
2023-03-03T19:22:52.639Z,6.90
2023-03-03T19:25:25.755Z,6.80
2023-03-03T19:28:36.746Z,6.70
2023-03-03T19:31:21.791Z,6.50
2023-03-03T19:33:59.413Z,6.70
2023-03-03T19:37:27.135Z,6.80
2023-03-03T19:40:10.396Z,6.70
2023-03-03T19:43:00.482Z,6.80
2023-03-03T19:46:19.959Z,6.60
2023-03-03T19:49:12.493Z,6.60
2023-03-03T19:52:19.263Z,6.60
2023-03-03T19:55:26.101Z,6.50
2023-03-03T19:58:25.218Z,6.70
2023-03-03T20:01:30.060Z,7.20
2023-03-03T20:04:53.920Z,5.40
2023-03-03T20:07:33.174Z,6.60
2023-03-03T20:10:26.986Z,6.50
2023-03-03T20:13:28.521Z,6.40
2023-03-03T20:16:10.593Z,6.40
2023-03-03T20:19:20.547Z,6.30
2023-03-03T20:22:34.604Z,6.30
2023-03-03T20:25:35.110Z,6.30
2023-03-03T20:29:07.439Z,6.30
2023-03-03T20:34:55.073Z,6.10
2023-03-03T20:37:58.953Z,6.20
2023-03-03T20:41:13.054Z,6.30
2023-03-03T20:43:58.583Z,6.00
2023-03-03T20:47:04.995Z,6.10
2023-03-03T20:55:19.850Z,6.10
2023-03-03T20:58:11.494Z,5.70
2023-03-03T21:01:06.170Z,5.50
2023-03-03T21:03:43.514Z,6.00
2023-03-03T21:08:53.739Z,5.90
2023-03-03T21:11:32.891Z,6.00
2023-03-03T21:14:14.322Z,5.80
2023-03-03T21:19:31.139Z,5.90
2023-03-03T21:22:02.166Z,5.90
2023-03-03T21:25:00.862Z,5.80
2023-03-03T21:27:38.518Z,5.80
2023-03-03T21:35:22.984Z,6.00
2023-03-03T21:37:53.510Z,5.70
2023-03-03T21:40:29.519Z,5.70
2023-03-03T21:43:00.249Z,5.70
2023-03-03T21:45:27.721Z,5.70
2023-03-03T21:50:31.071Z,5.50
2023-03-03T21:52:58.071Z,5.70
2023-03-03T21:55:26.680Z,5.60
2023-03-03T21:57:53.764Z,5.60
2023-03-03T22:00:21.014Z,5.50
2023-03-03T22:02:47.932Z,5.50
2023-03-03T22:05:14.879Z,5.50
2023-03-03T22:07:41.764Z,5.40
2023-03-03T22:12:36.824Z,5.50
2023-03-03T22:22:26.062Z,5.30
2023-03-03T22:29:47.972Z,5.30
2023-03-03T22:34:42.334Z,5.30
2023-03-03T22:39:36.596Z,5.10
2023-03-03T22:46:58.092Z,5.10
2023-03-03T23:09:03.776Z,5.10
2023-03-03T23:11:30.647Z,5.10
2023-03-03T23:16:24.895Z,5.10
2023-03-03T23:18:51.815Z,4.90
2023-03-03T23:23:46.079Z,4.90
2023-03-03T23:26:12.975Z,4.90
2023-03-03T23:28:39.847Z,4.90
2023-03-03T23:31:07.761Z,5.30
2023-03-03T23:36:02.258Z,4.80
2023-03-03T23:38:29.244Z,4.70
2023-03-03T23:40:56.112Z,4.80
2023-03-03T23:48:17.814Z,4.70
2023-03-03T23:55:39.292Z,4.60
